createdAt,value
2023-05-02T00:00:29.234Z,91.9926
2023-05-02T00:01:37.366Z,92.3206
2023-05-02T00:02:45.629Z,92.3454
2023-05-02T00:03:53.426Z,92.4083
2023-05-02T00:05:01.303Z,93.1126
2023-05-02T00:06:09.428Z,93.4289
2023-05-02T00:07:17.615Z,93.4321
2023-05-02T00:08:25.649Z,93.5762
2023-05-02T00:09:33.677Z,93.4495
2023-05-02T00:10:41.889Z,93.1179
2023-05-02T00:11:49.829Z,93.0133
2023-05-02T00:12:57.897Z,92.9044
2023-05-02T00:14:05.918Z,92.9853
2023-05-02T00:15:14.187Z,93.1192
2023-05-02T00:16:21.996Z,92.8251
2023-05-02T00:17:30.116Z,92.6698
2023-05-02T00:18:38.001Z,92.8886
2023-05-02T00:19:46.047Z,92.7788
2023-05-02T00:20:54.051Z,92.6691
2023-05-02T00:22:02.289Z,92.7552
2023-05-02T00:23:10.357Z,93.0253
2023-05-02T00:24:18.373Z,93.1976
2023-05-02T00:25:26.485Z,93.2583
2023-05-02T00:26:34.505Z,93.7311
2023-05-02T00:27:42.564Z,94.0930
2023-05-02T00:28:50.668Z,93.8856
2023-05-02T00:29:59.088Z,94.0866
2023-05-02T00:31:06.814Z,94.5615
2023-05-02T00:32:14.780Z,94.3606
2023-05-02T00:33:22.729Z,94.4374
2023-05-02T00:34:30.734Z,94.6339
2023-05-02T00:35:38.787Z,94.6551
2023-05-02T00:36:46.986Z,94.6898
2023-05-02T00:37:55.072Z,94.6385
2023-05-02T00:39:03.141Z,94.6006
2023-05-02T00:40:11.182Z,94.5136
2023-05-02T00:41:19.232Z,94.4338
2023-05-02T00:42:27.352Z,94.3847
2023-05-02T00:43:35.448Z,94.5378
2023-05-02T00:44:43.460Z,94.4755
2023-05-02T00:45:51.504Z,94.3667
2023-05-02T00:46:59.579Z,94.2855
2023-05-02T00:48:07.507Z,94.4392
2023-05-02T00:49:15.547Z,94.6614
2023-05-02T00:50:23.594Z,94.7255
2023-05-02T00:51:31.739Z,94.8181
2023-05-02T00:52:39.985Z,94.9570
2023-05-02T00:53:47.951Z,95.0479
2023-05-02T00:54:55.905Z,94.8860
2023-05-02T00:56:03.860Z,95.0974
2023-05-02T00:57:11.914Z,95.2245
2023-05-02T00:58:20.124Z,95.3427
2023-05-02T00:59:28.240Z,95.2040
2023-05-02T01:00:36.217Z,95.2451
2023-05-02T01:01:44.321Z,94.9771
2023-05-02T01:02:52.431Z,94.9104
2023-05-02T01:04:00.597Z,95.0473
2023-05-02T01:05:08.458Z,95.1038
2023-05-02T01:06:16.493Z,95.0013
2023-05-02T01:07:24.545Z,94.6615
2023-05-02T01:08:32.606Z,94.4616
2023-05-02T01:09:40.533Z,94.5262
2023-05-02T01:10:48.596Z,94.4374
2023-05-02T01:11:56.645Z,94.2514
2023-05-02T01:13:04.824Z,94.0379
2023-05-02T01:14:12.920Z,93.8037
2023-05-02T01:15:20.940Z,93.5737
2023-05-02T01:16:29.069Z,93.6192
2023-05-02T01:17:37.287Z,93.2783
2023-05-02T01:18:45.102Z,93.2494
2023-05-02T01:19:53.230Z,93.1974
2023-05-02T01:21:01.211Z,92.9105
2023-05-02T01:22:09.227Z,93.0184
2023-05-02T01:23:17.303Z,93.1022
2023-05-02T01:24:25.250Z,93.0303
2023-05-02T01:25:33.287Z,93.0977
2023-05-02T01:26:41.378Z,93.1229
2023-05-02T01:27:49.512Z,92.7307
2023-05-02T01:28:57.568Z,92.3774
2023-05-02T01:30:05.667Z,92.3062
2023-05-02T01:31:13.919Z,92.6733
2023-05-02T01:32:21.737Z,92.6249
2023-05-02T01:33:29.813Z,92.5588
2023-05-02T01:34:37.890Z,92.7636
2023-05-02T01:35:45.907Z,92.7816
2023-05-02T01:36:53.966Z,92.7038
2023-05-02T01:38:02.024Z,92.6672
2023-05-02T01:39:09.945Z,92.7492
2023-05-02T01:40:18.046Z,92.7945
2023-05-02T01:41:26.048Z,92.6857
2023-05-02T01:42:34.439Z,92.6246
2023-05-02T01:43:42.459Z,92.4783
2023-05-02T01:44:50.382Z,92.3011
2023-05-02T01:45:58.446Z,92.3948
2023-05-02T01:47:06.454Z,92.6149
2023-05-02T01:48:14.572Z,92.5771
2023-05-02T01:49:22.643Z,92.7339
2023-05-02T01:50:30.680Z,92.9006
2023-05-02T01:51:38.669Z,93.0312
2023-05-02T01:52:46.949Z,93.0008
2023-05-02T01:53:54.657Z,93.0406
2023-05-02T01:55:02.735Z,93.0091
2023-05-02T01:56:10.770Z,92.9909
2023-05-02T01:57:18.966Z,92.8802
2023-05-02T01:58:27.376Z,93.0811
2023-05-02T01:59:35.159Z,93.2558
2023-05-02T02:00:43.262Z,93.0739
2023-05-02T02:01:51.176Z,92.9401
2023-05-02T02:02:59.294Z,93.0256
2023-05-02T02:04:07.308Z,92.7648
2023-05-02T02:05:15.476Z,92.6867
2023-05-02T02:06:23.470Z,92.5947
2023-05-02T02:07:31.453Z,92.4459
2023-05-02T02:08:39.374Z,92.3333
2023-05-02T02:09:47.431Z,92.3375
2023-05-02T02:10:55.534Z,92.2542
2023-05-02T02:12:03.864Z,91.9679
2023-05-02T02:13:11.721Z,91.6576
2023-05-02T02:14:19.911Z,91.5527
2023-05-02T02:15:27.938Z,91.4800
2023-05-02T02:16:35.924Z,91.2947
2023-05-02T02:17:43.983Z,90.8289
2023-05-02T02:18:52.003Z,90.5568
2023-05-02T02:20:00.322Z,90.5009
2023-05-02T02:21:08.119Z,90.2487
2023-05-02T02:22:16.307Z,89.9109
2023-05-02T02:23:24.088Z,89.8180
2023-05-02T02:24:32.141Z,89.8695
2023-05-02T02:25:40.242Z,89.8027
2023-05-02T02:26:48.393Z,89.8556
2023-05-02T02:27:56.696Z,89.7418
2023-05-02T02:29:04.528Z,89.4224
2023-05-02T02:30:12.679Z,89.2833
2023-05-02T02:31:20.745Z,89.4127
2023-05-02T02:32:28.699Z,89.5829
2023-05-02T02:33:36.745Z,89.8080
2023-05-02T02:34:44.803Z,90.2556
2023-05-02T02:35:52.908Z,90.5034
2023-05-02T02:37:01.025Z,90.4549
2023-05-02T02:38:09.017Z,90.2500
2023-05-02T02:39:17.018Z,89.7054
2023-05-02T02:40:24.949Z,89.3283
2023-05-02T02:41:33.018Z,89.5501
2023-05-02T02:42:41.042Z,89.7122
2023-05-02T02:43:49.243Z,89.5852
2023-05-02T02:44:57.382Z,89.5424
2023-05-02T02:46:05.549Z,89.2978
2023-05-02T02:47:13.393Z,89.4623
2023-05-02T02:48:21.509Z,89.4445
2023-05-02T02:49:29.528Z,89.2798
2023-05-02T02:50:37.552Z,88.9890
2023-05-02T02:51:45.721Z,88.8600
2023-05-02T02:52:53.677Z,88.6596
2023-05-02T02:54:03.225Z,88.7126
2023-05-02T02:55:14.514Z,89.1504
2023-05-02T02:56:22.589Z,89.2260
2023-05-02T02:57:30.613Z,89.5402
2023-05-02T02:58:38.794Z,89.5847
2023-05-02T02:59:46.846Z,89.3182
2023-05-02T03:00:54.914Z,89.0163
2023-05-02T03:02:03.250Z,88.7446
2023-05-02T03:03:11.241Z,88.5552
2023-05-02T03:04:19.149Z,88.3016
2023-05-02T03:05:27.410Z,88.3039
2023-05-02T03:06:35.303Z,88.3009
2023-05-02T03:07:43.359Z,88.2669
2023-05-02T03:08:51.265Z,88.4008
2023-05-02T03:09:59.607Z,88.1740
2023-05-02T03:11:07.308Z,88.1174
2023-05-02T03:12:15.384Z,87.8320
2023-05-02T03:13:23.572Z,87.9802
2023-05-02T03:14:31.568Z,88.1598
2023-05-02T03:15:39.667Z,88.2906
2023-05-02T03:16:47.770Z,88.4504
2023-05-02T03:17:55.907Z,88.8123
2023-05-02T03:19:03.759Z,89.1887
2023-05-02T03:20:12.100Z,88.8724
2023-05-02T03:21:19.959Z,87.9096
2023-05-02T03:22:27.938Z,87.5159
2023-05-02T03:23:36.054Z,87.7062
2023-05-02T03:24:43.941Z,87.7036
2023-05-02T03:25:51.994Z,87.5898
2023-05-02T03:27:00.069Z,87.4427
2023-05-02T03:28:08.205Z,87.3948
2023-05-02T03:29:16.234Z,87.5808
2023-05-02T03:30:24.565Z,87.4155
2023-05-02T03:31:32.406Z,87.1838
2023-05-02T03:32:40.573Z,87.0125
2023-05-02T03:33:48.666Z,87.3180
2023-05-02T03:34:56.702Z,87.6282
2023-05-02T03:36:04.603Z,87.4619
2023-05-02T03:37:12.905Z,87.1614
2023-05-02T03:38:20.756Z,86.9560
2023-05-02T03:39:28.625Z,86.8941
2023-05-02T03:40:36.693Z,87.1740
2023-05-02T03:41:44.827Z,87.3154
2023-05-02T03:42:52.922Z,87.1868
2023-05-02T03:44:01.031Z,87.1220
2023-05-02T03:45:09.072Z,86.9397
2023-05-02T03:46:17.208Z,86.8316
2023-05-02T03:47:25.313Z,86.7682
2023-05-02T03:48:33.159Z,87.2998
2023-05-02T03:49:41.453Z,87.6258
2023-05-02T03:50:49.334Z,87.7174
2023-05-02T03:51:57.341Z,87.7613
2023-05-02T03:53:05.442Z,87.5881
2023-05-02T03:54:13.303Z,87.6763
2023-05-02T03:55:21.376Z,87.4755
2023-05-02T03:56:29.420Z,87.5272
2023-05-02T03:57:37.711Z,87.9596
2023-05-02T03:58:45.694Z,87.7979
2023-05-02T03:59:53.733Z,87.5362
2023-05-02T04:01:01.792Z,87.4050
2023-05-02T04:02:09.882Z,87.4150
2023-05-02T04:03:17.994Z,87.2325
2023-05-02T04:04:26.077Z,86.9531
2023-05-02T04:05:34.056Z,86.9953
2023-05-02T04:06:42.305Z,87.2101
2023-05-02T04:07:50.178Z,87.4770
2023-05-02T04:08:58.037Z,87.7926
2023-05-02T04:10:06.085Z,87.7941
2023-05-02T04:11:14.138Z,87.8993
2023-05-02T04:12:22.195Z,87.7637
2023-05-02T04:13:30.432Z,87.4656
2023-05-02T04:14:38.472Z,87.4645
2023-05-02T04:15:46.505Z,87.7095
2023-05-02T04:16:54.641Z,87.8828
2023-05-02T04:18:02.658Z,87.8106
2023-05-02T04:19:10.675Z,87.8519
2023-05-02T04:20:18.719Z,88.0183
2023-05-02T04:21:26.886Z,87.9891
2023-05-02T04:22:35.000Z,87.9438
2023-05-02T04:23:42.919Z,88.1449
2023-05-02T04:24:50.816Z,88.1813
2023-05-02T04:25:58.858Z,88.2777
2023-05-02T04:27:06.928Z,88.3956
2023-05-02T04:28:15.088Z,88.7043
2023-05-02T04:29:23.177Z,88.7962
2023-05-02T04:30:31.388Z,89.0750
2023-05-02T04:31:39.269Z,88.9532
2023-05-02T04:32:47.369Z,88.6925
2023-05-02T04:33:55.407Z,88.6041
2023-05-02T04:35:03.438Z,88.5268
2023-05-02T04:36:11.708Z,88.4468
2023-05-02T04:37:20.875Z,88.5004
2023-05-02T04:38:32.323Z,88.1695
2023-05-02T04:39:40.422Z,87.7289
2023-05-02T04:40:48.436Z,87.6519
2023-05-02T04:41:56.629Z,87.7057
2023-05-02T04:43:04.755Z,87.6211
2023-05-02T04:44:12.976Z,87.4140
2023-05-02T04:45:20.789Z,87.2516
2023-05-02T04:46:29.002Z,87.0984
2023-05-02T04:47:36.905Z,87.0151
2023-05-02T04:48:45.007Z,87.2241
2023-05-02T04:49:53.000Z,87.5423
2023-05-02T04:51:01.165Z,87.8517
2023-05-02T04:52:09.176Z,88.2201
2023-05-02T04:53:17.118Z,88.5023
2023-05-02T04:54:25.226Z,88.7918
2023-05-02T04:55:33.227Z,88.9924
2023-05-02T04:56:41.470Z,88.8662
2023-05-02T04:57:49.492Z,88.6090
2023-05-02T04:58:57.608Z,88.5330
2023-05-02T05:00:05.640Z,88.4949
2023-05-02T05:01:13.671Z,88.5463
2023-05-02T05:02:22.008Z,88.5569
2023-05-02T05:03:29.930Z,88.6578
2023-05-02T05:04:37.876Z,88.6141
2023-05-02T05:05:45.856Z,88.3594
2023-05-02T05:06:53.965Z,88.6539
2023-05-02T05:08:01.862Z,89.1503
2023-05-02T05:09:09.922Z,89.8438
2023-05-02T05:10:17.972Z,90.0145
2023-05-02T05:11:26.171Z,90.2121
2023-05-02T05:12:34.195Z,90.3910
2023-05-02T05:13:42.139Z,90.4307
2023-05-02T05:14:50.345Z,90.1525
2023-05-02T05:15:58.446Z,89.9890
2023-05-02T05:17:06.428Z,89.8490
2023-05-02T05:18:14.657Z,89.9714
2023-05-02T05:19:22.574Z,89.8395
2023-05-02T05:20:30.647Z,89.3154
2023-05-02T05:21:38.654Z,89.4070
2023-05-02T05:22:46.627Z,89.4479
2023-05-02T05:23:54.635Z,89.5360
2023-05-02T05:25:02.705Z,89.6617
2023-05-02T05:26:11.033Z,89.6751
2023-05-02T05:27:18.953Z,89.5045
2023-05-02T05:28:26.980Z,89.2339
2023-05-02T05:29:35.122Z,89.4229
2023-05-02T05:30:43.098Z,89.2826
2023-05-02T05:31:51.232Z,89.2180
2023-05-02T05:32:59.324Z,88.9929
2023-05-02T05:34:07.323Z,88.8909
2023-05-02T05:35:15.441Z,88.4831
2023-05-02T05:36:23.678Z,88.1666
2023-05-02T05:37:31.318Z,87.8488
2023-05-02T05:38:39.317Z,87.7571
2023-05-02T05:39:47.380Z,87.4427
2023-05-02T05:40:55.562Z,87.6853
2023-05-02T05:42:03.675Z,87.7737
2023-05-02T05:43:11.728Z,87.8275
2023-05-02T05:44:19.752Z,87.8149
2023-05-02T05:45:27.776Z,87.7615
2023-05-02T05:46:35.982Z,87.1699
2023-05-02T05:47:43.955Z,86.9427
2023-05-02T05:48:52.158Z,86.7105
2023-05-02T05:50:00.215Z,86.3883
2023-05-02T05:51:07.927Z,86.1748
2023-05-02T05:52:16.050Z,86.5041
2023-05-02T05:53:24.026Z,86.6928
2023-05-02T05:54:32.242Z,86.8717
2023-05-02T05:55:42.165Z,86.6967
2023-05-02T05:56:53.308Z,86.3586
2023-05-02T05:58:01.236Z,85.8717
2023-05-02T05:59:09.424Z,85.0683
2023-05-02T06:00:17.302Z,85.0476
2023-05-02T06:01:25.345Z,84.9560
2023-05-02T06:02:33.608Z,84.9070
2023-05-02T06:03:41.743Z,85.1469
2023-05-02T06:04:49.483Z,85.7219
2023-05-02T06:05:57.527Z,85.9753
2023-05-02T06:07:05.552Z,85.2741
2023-05-02T06:08:13.803Z,85.5364
2023-05-02T06:09:21.786Z,85.9347
2023-05-02T06:10:29.825Z,85.9299
2023-05-02T06:11:37.910Z,85.9179
2023-05-02T06:12:47.147Z,85.8138
2023-05-02T06:13:58.835Z,85.7502
2023-05-02T06:15:07.019Z,85.7842
2023-05-02T06:16:15.097Z,85.4401
2023-05-02T06:17:23.101Z,85.3001
2023-05-02T06:18:30.956Z,85.5946
2023-05-02T06:19:39.055Z,85.6335
2023-05-02T06:20:47.085Z,85.1399
2023-05-02T06:21:55.267Z,84.8074
2023-05-02T06:23:03.305Z,84.8734
2023-05-02T06:24:11.599Z,84.1735
2023-05-02T06:25:19.381Z,84.0272
2023-05-02T06:26:27.465Z,84.3527
2023-05-02T06:27:35.556Z,83.4287
2023-05-02T06:28:43.635Z,83.6486
2023-05-02T06:29:51.616Z,83.6207
2023-05-02T06:30:59.774Z,83.0382
2023-05-02T06:32:07.948Z,82.8525
2023-05-02T06:33:15.707Z,81.7894
2023-05-02T06:34:23.697Z,80.6355
2023-05-02T06:35:31.772Z,80.3193
2023-05-02T06:36:39.950Z,80.1010
2023-05-02T06:37:48.046Z,79.9724
2023-05-02T06:38:56.050Z,80.6277
2023-05-02T06:40:04.427Z,81.2151
2023-05-02T06:41:12.168Z,81.7992
2023-05-02T06:42:20.199Z,82.2378
2023-05-02T06:43:28.314Z,82.5123
2023-05-02T06:44:36.310Z,82.9841
2023-05-02T06:45:44.345Z,82.6003
2023-05-02T06:46:52.470Z,81.9818
2023-05-02T06:48:00.515Z,81.8059
2023-05-02T06:49:08.424Z,81.9158
2023-05-02T06:50:16.536Z,81.6280
2023-05-02T06:51:24.484Z,81.0435
2023-05-02T06:52:32.644Z,80.4832
2023-05-02T06:53:40.797Z,80.3031
2023-05-02T06:54:48.745Z,80.2942
2023-05-02T06:55:56.896Z,80.3000
2023-05-02T06:57:04.826Z,80.2221
2023-05-02T06:58:12.934Z,79.8141
2023-05-02T06:59:20.979Z,79.5836
2023-05-02T07:00:29.068Z,79.4969
2023-05-02T07:01:37.202Z,79.2076
2023-05-02T07:02:45.062Z,79.0325
2023-05-02T07:03:53.141Z,78.8138
2023-05-02T07:05:01.140Z,79.1096
2023-05-02T07:06:09.364Z,79.0923
2023-05-02T07:07:17.320Z,79.2094
2023-05-02T07:08:25.421Z,79.2058
2023-05-02T07:09:33.460Z,79.4677
2023-05-02T07:10:41.672Z,79.4967
2023-05-02T07:11:49.682Z,79.3732
2023-05-02T07:12:57.592Z,78.8679
2023-05-02T07:14:05.719Z,78.3056
2023-05-02T07:15:13.674Z,78.3901
2023-05-02T07:16:21.860Z,77.8018
2023-05-02T07:17:29.784Z,77.9110
2023-05-02T07:18:37.771Z,77.9576
2023-05-02T07:19:45.855Z,78.4472
2023-05-02T07:20:53.842Z,78.8889
2023-05-02T07:22:02.218Z,78.8337
2023-05-02T07:23:10.177Z,78.6835
2023-05-02T07:24:18.167Z,78.6617
2023-05-02T07:25:26.147Z,78.6684
2023-05-02T07:26:34.185Z,79.4631
2023-05-02T07:27:42.324Z,80.0108
2023-05-02T07:28:50.340Z,80.0073
2023-05-02T07:31:06.369Z,78.2453
2023-05-02T07:32:14.537Z,77.9944
2023-05-02T07:33:22.447Z,77.4339
2023-05-02T07:34:30.404Z,77.4602
2023-05-02T07:35:38.447Z,78.0635
2023-05-02T07:36:46.627Z,78.5731
2023-05-02T07:37:54.649Z,79.0013
2023-05-02T07:39:02.830Z,79.4245
2023-05-02T07:40:10.819Z,80.0085
2023-05-02T07:41:18.896Z,79.7100
2023-05-02T07:42:26.900Z,79.3168
2023-05-02T07:43:35.092Z,78.2787
2023-05-02T07:44:42.966Z,77.6003
2023-05-02T07:45:51.062Z,78.0467
2023-05-02T07:46:59.110Z,77.5204
2023-05-02T07:48:07.070Z,76.5839
2023-05-02T07:49:15.116Z,76.4288
2023-05-02T07:50:23.140Z,76.0989
2023-05-02T07:51:31.289Z,76.1609
2023-05-02T07:52:39.394Z,75.9936
2023-05-02T07:53:47.369Z,76.4264
2023-05-02T07:54:55.571Z,76.4877
2023-05-02T07:56:03.526Z,76.5293
2023-05-02T07:57:11.545Z,76.8725
2023-05-02T07:58:19.601Z,77.4451
2023-05-02T07:59:27.763Z,77.9892
2023-05-02T08:00:35.797Z,78.4460
2023-05-02T08:01:43.749Z,78.9587
2023-05-02T08:02:51.796Z,77.8149
2023-05-02T08:03:59.917Z,77.6089
2023-05-02T08:05:08.068Z,77.4363
2023-05-02T08:06:15.999Z,77.4658
2023-05-02T08:07:24.030Z,77.6351
2023-05-02T08:08:32.077Z,77.8752
2023-05-02T08:09:40.133Z,77.6682
2023-05-02T08:10:48.253Z,76.9800
2023-05-02T08:11:56.265Z,76.6416
2023-05-02T08:13:04.309Z,76.7069
2023-05-02T08:14:12.374Z,77.1986
2023-05-02T08:15:20.655Z,77.0270
2023-05-02T08:16:28.465Z,76.8471
2023-05-02T08:17:36.472Z,76.1114
2023-05-02T08:18:44.528Z,75.7482
2023-05-02T08:19:52.671Z,74.9744
2023-05-02T08:21:00.727Z,74.1941
2023-05-02T08:22:08.741Z,74.9253
2023-05-02T08:23:16.817Z,75.3010
2023-05-02T08:24:24.955Z,75.3154
2023-05-02T08:25:32.982Z,74.2774
2023-05-02T08:26:41.020Z,73.5923
2023-05-02T08:27:48.990Z,73.7110
2023-05-02T08:28:57.071Z,74.4024
2023-05-02T08:30:05.458Z,74.8495
2023-05-02T08:31:13.193Z,74.0854
2023-05-02T08:32:21.130Z,73.6814
2023-05-02T08:33:29.183Z,74.2073
2023-05-02T08:34:37.300Z,72.9107
2023-05-02T08:35:45.405Z,71.9589
2023-05-02T08:36:53.497Z,72.0377
2023-05-02T08:38:01.489Z,71.5465
2023-05-02T08:39:09.550Z,71.5564
2023-05-02T08:40:24.686Z,71.8153
2023-05-02T08:41:30.577Z,71.4226
2023-05-02T08:42:38.586Z,70.9886
2023-05-02T08:43:46.618Z,69.9402
2023-05-02T08:44:54.523Z,70.6872
2023-05-02T08:46:02.596Z,70.8709
2023-05-02T08:47:10.762Z,70.3702
2023-05-02T08:48:18.818Z,70.9293
2023-05-02T08:49:26.875Z,71.8902
2023-05-02T08:50:34.871Z,70.5160
2023-05-02T08:51:42.989Z,68.7278
2023-05-02T08:52:51.020Z,68.9321
2023-05-02T08:53:59.097Z,67.8933
2023-05-02T08:55:07.077Z,67.0575
2023-05-02T08:56:15.213Z,66.7706
2023-05-02T08:57:23.321Z,67.3470
2023-05-02T08:58:31.250Z,68.1138
2023-05-02T08:59:39.310Z,69.5796
2023-05-02T09:00:47.390Z,69.4398
2023-05-02T09:01:55.421Z,68.3598
2023-05-02T09:03:03.550Z,68.9608
2023-05-02T09:04:11.602Z,69.1629
2023-05-02T09:05:19.710Z,68.3379
2023-05-02T09:06:27.794Z,69.0508
2023-05-02T09:07:35.728Z,68.3608
2023-05-02T09:08:43.875Z,68.4080
2023-05-02T09:09:51.849Z,69.0454
2023-05-02T09:10:59.910Z,69.5014
2023-05-02T09:12:07.988Z,67.2956
2023-05-02T09:13:16.006Z,66.2277
2023-05-02T09:14:23.957Z,66.0761
2023-05-02T09:15:32.020Z,65.2125
2023-05-02T09:16:40.208Z,65.8132
2023-05-02T09:17:48.257Z,65.3786
2023-05-02T09:18:56.268Z,64.3740
2023-05-02T09:20:04.292Z,63.5145
2023-05-02T09:21:12.835Z,62.8750
2023-05-02T09:22:20.444Z,64.5889
2023-05-02T09:23:28.480Z,64.4952
2023-05-02T09:24:36.574Z,64.5946
2023-05-02T09:25:44.652Z,64.0677
2023-05-02T09:26:52.694Z,63.3604
2023-05-02T09:28:00.678Z,63.3415
2023-05-02T09:29:08.665Z,62.5279
2023-05-02T09:30:16.775Z,61.5035
2023-05-02T09:31:43.845Z,61.1221
2023-05-02T09:32:37.888Z,61.1432
2023-05-02T09:33:45.808Z,60.8652
2023-05-02T09:34:53.932Z,62.1587
2023-05-02T09:36:01.954Z,62.5456
2023-05-02T09:37:10.338Z,62.0182
2023-05-02T09:38:18.129Z,60.6607
2023-05-02T09:39:26.420Z,61.3380
2023-05-02T09:40:34.141Z,60.2650
2023-05-02T09:41:42.181Z,58.8390
2023-05-02T09:42:50.206Z,59.9935
2023-05-02T09:43:58.218Z,60.6982
2023-05-02T09:45:06.270Z,60.9450
2023-05-02T09:46:14.393Z,60.7075
2023-05-02T09:47:22.480Z,61.7586
2023-05-02T09:48:30.579Z,60.8320
2023-05-02T09:49:38.533Z,60.7862
2023-05-02T09:50:46.621Z,61.7701
2023-05-02T09:51:54.672Z,61.2645
2023-05-02T09:53:02.758Z,61.1747
2023-05-02T09:54:10.804Z,61.4831
2023-05-02T09:55:18.830Z,62.3997
2023-05-02T09:56:27.083Z,63.1181
2023-05-02T09:57:34.853Z,61.8522
2023-05-02T09:58:42.938Z,61.9296
2023-05-02T09:59:50.947Z,62.5893
2023-05-02T10:00:59.094Z,62.4842
2023-05-02T10:02:07.395Z,62.9858
2023-05-02T10:03:15.329Z,61.8089
2023-05-02T10:04:23.394Z,61.9795
2023-05-02T10:05:31.309Z,61.3134
2023-05-02T10:06:39.460Z,60.7731
2023-05-02T10:07:47.512Z,59.4814
2023-05-02T10:08:55.509Z,58.6538
2023-05-02T10:10:03.587Z,58.7844
2023-05-02T10:11:11.805Z,56.4864
2023-05-02T10:12:19.585Z,52.9469
2023-05-02T10:13:27.628Z,51.1046
2023-05-02T10:14:35.681Z,52.8622
2023-05-02T10:15:43.880Z,51.3909
2023-05-02T10:16:51.875Z,48.5698
2023-05-02T10:18:00.045Z,46.6687
2023-05-02T10:19:08.155Z,47.5227
2023-05-02T10:20:16.289Z,49.3532
2023-05-02T10:21:24.088Z,50.3307
2023-05-02T10:22:32.224Z,52.2701
2023-05-02T10:23:40.211Z,52.8234
2023-05-02T10:24:48.210Z,49.9505
2023-05-02T10:25:57.114Z,50.7491
2023-05-02T10:27:09.143Z,51.5453
2023-05-02T10:28:17.379Z,51.9515
2023-05-02T10:29:25.216Z,54.5546
2023-05-02T10:30:33.351Z,56.8428
2023-05-02T10:31:43.027Z,56.9905
2023-05-02T10:32:54.388Z,56.2788
2023-05-02T10:34:02.452Z,56.3589
2023-05-02T10:35:10.496Z,58.0409
2023-05-02T10:36:18.573Z,57.9835
2023-05-02T10:37:26.506Z,59.8395
2023-05-02T10:38:34.581Z,60.0845
2023-05-02T10:39:42.670Z,58.6561
2023-05-02T10:40:50.867Z,58.9607
2023-05-02T10:41:58.654Z,58.5400
2023-05-02T10:43:06.713Z,57.9955
2023-05-02T10:44:14.854Z,57.4732
2023-05-02T10:45:22.871Z,57.4287
2023-05-02T10:46:31.003Z,58.2380
2023-05-02T10:47:39.079Z,57.9948
2023-05-02T10:48:47.060Z,58.3706
2023-05-02T10:49:55.195Z,59.2848
2023-05-02T10:51:03.189Z,59.2380
2023-05-02T10:52:11.264Z,59.7563
2023-05-02T10:53:19.398Z,59.9921
2023-05-02T10:54:27.351Z,60.3541
2023-05-02T10:55:35.339Z,61.2856
2023-05-02T10:56:43.361Z,60.7895
2023-05-02T10:57:51.403Z,60.0327
2023-05-02T10:58:59.548Z,59.9397
2023-05-02T11:00:07.656Z,60.2701
2023-05-02T11:01:15.641Z,59.4136
2023-05-02T11:02:24.064Z,59.3010
2023-05-02T11:03:31.892Z,59.6575
2023-05-02T11:04:39.953Z,59.5399
2023-05-02T11:05:47.959Z,57.6738
2023-05-02T11:06:56.102Z,58.8620
2023-05-02T11:08:04.015Z,58.0765
2023-05-02T11:09:12.105Z,57.5160
2023-05-02T11:10:20.066Z,56.9603
2023-05-02T11:11:28.121Z,57.2818
2023-05-02T11:12:36.157Z,56.9929
2023-05-02T11:13:44.223Z,58.2753
2023-05-02T11:14:52.369Z,58.0578
2023-05-02T11:16:00.517Z,57.8106
2023-05-02T11:17:08.478Z,58.0208
2023-05-02T11:18:16.617Z,57.1604
2023-05-02T11:19:24.675Z,56.0783
2023-05-02T11:20:32.670Z,54.0661
2023-05-02T11:21:40.671Z,53.3005
2023-05-02T11:22:48.748Z,53.7046
2023-05-02T11:23:56.786Z,54.6992
2023-05-02T11:25:04.818Z,54.1027
2023-05-02T11:26:12.836Z,54.4548
2023-05-02T11:27:20.885Z,54.7468
2023-05-02T11:28:29.053Z,53.8229
2023-05-02T11:29:37.194Z,54.9419
2023-05-02T11:30:45.192Z,54.7624
2023-05-02T11:31:53.251Z,54.0989
2023-05-02T11:33:01.298Z,54.7054
2023-05-02T11:34:09.508Z,53.5143
2023-05-02T11:35:17.521Z,54.0900
2023-05-02T11:36:25.526Z,53.6921
2023-05-02T11:37:33.532Z,54.8389
2023-05-02T11:38:41.615Z,55.7612
2023-05-02T11:39:49.545Z,56.0340
2023-05-02T11:40:57.588Z,55.8186
2023-05-02T11:42:05.607Z,56.7681
2023-05-02T11:43:13.776Z,55.0216
2023-05-02T11:44:21.754Z,55.3890
2023-05-02T11:45:30.125Z,55.2474
2023-05-02T11:46:38.091Z,56.1123
2023-05-02T11:47:46.132Z,55.9945
2023-05-02T11:48:54.100Z,55.4962
2023-05-02T11:50:02.280Z,54.4758
2023-05-02T11:51:10.220Z,54.3709
2023-05-02T11:52:18.301Z,53.8078
2023-05-02T11:53:26.458Z,51.3392
2023-05-02T11:54:34.399Z,49.7833
2023-05-02T11:55:42.420Z,49.5514
2023-05-02T11:56:50.409Z,48.6303
2023-05-02T11:57:58.474Z,50.3836
2023-05-02T11:59:06.549Z,49.2744
2023-05-02T12:00:14.845Z,48.6275
2023-05-02T12:01:23.025Z,48.4461
2023-05-02T12:02:31.109Z,48.9997
2023-05-02T12:03:38.997Z,46.9337
2023-05-02T12:04:46.969Z,45.9308
2023-05-02T12:05:55.192Z,44.5504
2023-05-02T12:07:03.250Z,44.1838
2023-05-02T12:08:11.127Z,41.7747
2023-05-02T12:09:19.184Z,42.3569
2023-05-02T12:10:27.363Z,42.0101
2023-05-02T12:11:35.270Z,41.2306
2023-05-02T12:12:43.347Z,40.3471
2023-05-02T12:13:51.498Z,40.7126
2023-05-02T12:14:59.569Z,39.3717
2023-05-02T12:16:07.585Z,38.9406
2023-05-02T12:17:15.584Z,37.2748
2023-05-02T12:18:23.626Z,37.0566
2023-05-02T12:19:31.768Z,39.8526
2023-05-02T12:20:39.742Z,41.2978
2023-05-02T12:21:47.893Z,41.9582
2023-05-02T12:22:56.133Z,42.4983
2023-05-02T12:24:03.825Z,44.2501
2023-05-02T12:25:11.866Z,45.6954
2023-05-02T12:26:20.015Z,47.0239
2023-05-02T12:27:28.005Z,45.8747
2023-05-02T12:28:36.244Z,46.4394
2023-05-02T12:29:44.394Z,49.3531
2023-05-02T12:30:52.351Z,52.6979
2023-05-02T12:32:00.625Z,54.8308
2023-05-02T12:33:08.450Z,56.3099
2023-05-02T12:34:16.483Z,57.5853
2023-05-02T12:35:24.537Z,59.0949
2023-05-02T12:36:32.563Z,60.3063
2023-05-02T12:37:40.774Z,61.2396
2023-05-02T12:38:48.580Z,62.2932
2023-05-02T12:39:56.662Z,62.9930
2023-05-02T12:41:04.711Z,64.0080
2023-05-02T12:42:12.902Z,65.2797
2023-05-02T12:43:20.961Z,66.5718
2023-05-02T12:44:28.856Z,67.2352
2023-05-02T12:45:37.056Z,67.4700
2023-05-02T12:46:45.197Z,67.6777
2023-05-02T12:47:53.272Z,67.8092
2023-05-02T12:49:01.215Z,68.9888
2023-05-02T12:50:09.390Z,69.7371
2023-05-02T12:51:17.359Z,70.4387
2023-05-02T12:52:25.341Z,71.1118
2023-05-02T12:53:33.305Z,71.9145
2023-05-02T12:54:41.369Z,72.9360
2023-05-02T12:55:49.441Z,73.9577
2023-05-02T12:56:57.681Z,74.8298
2023-05-02T12:58:05.648Z,75.3099
2023-05-02T12:59:13.721Z,75.8687
2023-05-02T13:00:21.830Z,77.0078
2023-05-02T13:01:29.938Z,78.3990
2023-05-02T13:02:38.039Z,79.5929
2023-05-02T13:03:46.052Z,80.0645
2023-05-02T13:04:53.998Z,81.0234
2023-05-02T13:06:02.113Z,81.6674
2023-05-02T13:07:10.178Z,82.9580
2023-05-02T13:08:18.065Z,82.5564
2023-05-02T13:09:26.193Z,81.8135
2023-05-02T13:10:34.277Z,81.0881
2023-05-02T13:11:42.654Z,80.5302
2023-05-02T13:12:50.490Z,80.6956
2023-05-02T13:13:59.225Z,80.7441
2023-05-02T13:15:06.612Z,80.1527
2023-05-02T13:16:14.691Z,80.1354
2023-05-02T13:17:22.792Z,80.0385
2023-05-02T13:18:30.815Z,78.9694
2023-05-02T13:19:40.539Z,78.1039
2023-05-02T13:20:51.656Z,77.2814
2023-05-02T13:21:59.747Z,75.1585
2023-05-02T13:23:07.752Z,75.3320
2023-05-02T13:24:15.803Z,75.7402
2023-05-02T13:25:23.984Z,75.6361
2023-05-02T13:26:31.999Z,76.1705
2023-05-02T13:27:40.094Z,74.2498
2023-05-02T13:28:48.120Z,74.1644
2023-05-02T13:29:56.183Z,74.3891
2023-05-02T13:31:04.259Z,73.8900
2023-05-02T13:32:12.322Z,73.9599
2023-05-02T13:33:20.389Z,72.8547
2023-05-02T13:34:28.408Z,73.9827
2023-05-02T13:35:36.400Z,73.2784
2023-05-02T13:36:44.474Z,69.7964
2023-05-02T13:37:52.544Z,68.5934
2023-05-02T13:39:00.678Z,68.1359
2023-05-02T13:40:08.978Z,66.2516
2023-05-02T13:41:16.808Z,64.7715
2023-05-02T13:42:24.822Z,65.8763
2023-05-02T13:43:33.044Z,64.7767
2023-05-02T13:44:41.127Z,62.2852